createdAt,value
2022-12-14T00:01:09.933Z,93661.44
2022-12-14T00:04:19.788Z,93645.88
2022-12-14T00:07:29.875Z,93628.69
2022-12-14T00:10:39.999Z,93604.25
2022-12-14T00:13:55.062Z,93609.31
2022-12-14T00:17:03.395Z,93614.34
2022-12-14T00:20:13.523Z,93598.53
2022-12-14T00:23:21.724Z,93604.13
2022-12-14T00:26:33.070Z,93592.94
2022-12-14T00:29:41.365Z,93610.28
2022-12-14T00:32:49.861Z,93622.13
2022-12-14T00:36:00.382Z,93620.91
2022-12-14T00:39:08.677Z,93626.47
2022-12-14T00:42:16.942Z,93636.47
2022-12-14T00:45:25.178Z,93629.38
2022-12-14T00:48:34.883Z,93640.81
2022-12-14T00:51:49.811Z,93644.75
2022-12-14T00:54:58.215Z,93656.25
2022-12-14T00:58:06.668Z,93654.19
2022-12-14T01:01:15.094Z,93664.44
2022-12-14T01:04:24.722Z,93660.88
2022-12-14T01:07:34.363Z,93647.38
2022-12-14T01:10:43.551Z,93650.91
2022-12-14T01:13:52.147Z,93630.72
2022-12-14T01:17:00.333Z,93634.81
2022-12-14T01:20:10.564Z,93631.53
2022-12-14T01:23:20.159Z,93652.28
2022-12-14T01:26:30.621Z,93648.19
2022-12-14T01:29:39.171Z,93645.72
2022-12-14T01:32:47.789Z,93640.81
2022-12-14T01:35:56.393Z,93617.19
2022-12-14T01:39:13.547Z,93616.78
2022-12-14T01:42:21.924Z,93622.53
2022-12-14T01:45:30.594Z,93608.88
2022-12-14T01:48:38.904Z,93607.25
2022-12-14T01:51:56.911Z,93624.84
2022-12-14T01:55:14.539Z,93639.75
2022-12-14T01:58:25.440Z,93640.28
2022-12-14T02:01:34.246Z,93628.81
2022-12-14T02:04:51.706Z,93625.78
2022-12-14T02:08:00.422Z,93633.03
2022-12-14T02:11:10.083Z,93636.47
2022-12-14T02:14:18.382Z,93625.91
2022-12-14T02:17:28.985Z,93637.78
2022-12-14T02:20:50.243Z,93648.44
2022-12-14T02:24:35.392Z,93641.34
2022-12-14T02:28:10.934Z,93617.31
2022-12-14T02:31:29.631Z,93633.69
2022-12-14T02:34:54.937Z,93625.91
2022-12-14T02:38:32.365Z,93616.88
2022-12-14T02:41:54.436Z,93602.41
2022-12-14T02:45:12.305Z,93581.75
2022-12-14T02:48:28.161Z,93572.41
2022-12-14T02:51:53.764Z,93589.09
2022-12-14T02:55:08.963Z,93599.47
2022-12-14T02:58:23.765Z,93596.47
2022-12-14T03:01:32.827Z,93590.28
2022-12-14T03:04:47.666Z,93581.69
2022-12-14T03:08:00.621Z,93576.78
2022-12-14T03:11:12.165Z,93559.13
2022-12-14T03:14:27.342Z,93555.72
2022-12-14T03:17:38.746Z,93553.72
2022-12-14T03:20:54.523Z,93552.50
2022-12-14T03:24:12.532Z,93553.91
2022-12-14T03:27:26.340Z,93539.88
2022-12-14T03:30:59.493Z,93551.75
2022-12-14T03:34:13.257Z,93566.06
2022-12-14T03:37:33.827Z,93558.00
2022-12-14T03:40:52.362Z,93547.34
2022-12-14T03:44:17.102Z,93548.03
2022-12-14T03:47:54.864Z,93541.97
2022-12-14T03:51:14.212Z,93532.72
2022-12-14T03:55:24.321Z,93531.59
2022-12-14T03:58:44.861Z,93529.91
2022-12-14T04:02:03.689Z,93549.59
2022-12-14T04:05:19.212Z,93535.59
2022-12-14T04:08:37.115Z,93541.34
2022-12-14T04:12:14.141Z,93555.88
2022-12-14T04:15:46.413Z,93544.91
2022-12-14T04:19:00.561Z,93546.94
2022-12-14T04:22:14.835Z,93546.06
2022-12-14T04:25:48.909Z,93547.84
2022-12-14T04:29:22.222Z,93536.22
2022-12-14T04:32:36.904Z,93531.84
2022-12-14T04:35:46.020Z,93523.75
2022-12-14T04:39:01.475Z,93518.97
2022-12-14T04:42:12.844Z,93502.47
2022-12-14T04:45:28.634Z,93492.06
2022-12-14T04:48:46.017Z,93484.59
2022-12-14T04:52:05.205Z,93491.03
2022-12-14T04:55:21.855Z,93486.38
2022-12-14T04:58:32.736Z,93483.91
2022-12-14T05:01:55.860Z,93484.19
2022-12-14T05:05:17.170Z,93499.59
2022-12-14T05:09:01.432Z,93483.91
2022-12-14T05:12:18.368Z,93480.09
2022-12-14T05:15:35.381Z,93482.00
2022-12-14T05:18:46.529Z,93482.44
2022-12-14T05:21:56.090Z,93480.38
2022-12-14T05:25:04.601Z,93472.88
2022-12-14T05:28:13.886Z,93478.13
2022-12-14T05:31:22.454Z,93479.16
2022-12-14T05:34:32.333Z,93478.22
2022-12-14T05:37:40.825Z,93462.19
2022-12-14T05:40:49.209Z,93470.41
2022-12-14T05:43:57.408Z,93470.28
2022-12-14T05:47:06.139Z,93460.41
2022-12-14T05:50:15.825Z,93446.75
2022-12-14T05:53:24.194Z,93439.38
2022-12-14T05:56:32.876Z,93438.19
2022-12-14T05:59:41.275Z,93447.78
2022-12-14T06:02:49.718Z,93442.88
2022-12-14T06:06:03.925Z,93442.06
2022-12-14T06:09:16.179Z,93440.13
2022-12-14T06:12:24.427Z,93433.81
2022-12-14T06:15:34.237Z,93441.75
2022-12-14T06:18:45.166Z,93441.53
2022-12-14T06:21:54.726Z,93445.56
2022-12-14T06:25:02.955Z,93446.72
2022-12-14T06:28:11.271Z,93441.69
2022-12-14T06:31:22.675Z,93433.75
2022-12-14T06:34:35.361Z,93433.97
2022-12-14T06:37:50.621Z,93422.16
2022-12-14T06:40:58.826Z,93419.53
2022-12-14T06:44:11.776Z,93407.22
2022-12-14T06:47:20.307Z,93415.03
2022-12-14T06:50:29.040Z,93415.63
2022-12-14T06:53:39.221Z,93397.22
2022-12-14T06:56:49.067Z,93404.00
2022-12-14T06:59:57.318Z,93400.16
2022-12-14T07:03:06.057Z,93388.47
2022-12-14T07:06:14.700Z,93388.19
2022-12-14T07:09:24.779Z,93389.28
2022-12-14T07:12:33.399Z,93395.78
2022-12-14T07:15:41.891Z,93383.69
2022-12-14T07:18:51.448Z,93383.91
2022-12-14T07:22:06.350Z,93382.31
2022-12-14T07:25:16.215Z,93375.25
2022-12-14T07:28:24.829Z,93379.13
2022-12-14T07:31:33.443Z,93364.50
2022-12-14T07:34:41.791Z,93371.72
2022-12-14T07:37:51.413Z,93362.63
2022-12-14T07:41:05.848Z,93353.28
2022-12-14T07:44:14.915Z,93368.75
2022-12-14T07:47:23.073Z,93372.81
2022-12-14T07:50:31.326Z,93370.91
2022-12-14T07:53:40.988Z,93365.22
2022-12-14T07:56:51.030Z,93361.19
2022-12-14T07:59:59.320Z,93354.72
2022-12-14T08:03:07.579Z,93353.94
2022-12-14T08:06:17.611Z,93353.78
2022-12-14T08:09:25.904Z,93350.06
2022-12-14T08:12:35.431Z,93341.13
2022-12-14T08:15:43.663Z,93336.31
2022-12-14T08:18:54.989Z,93326.88
2022-12-14T08:22:03.191Z,93325.25
2022-12-14T08:25:11.659Z,93323.50
2022-12-14T08:28:21.237Z,93315.84
2022-12-14T08:31:29.739Z,93304.75
2022-12-14T08:34:38.013Z,93305.22
2022-12-14T08:37:47.754Z,93301.78
2022-12-14T08:40:56.914Z,93304.50
2022-12-14T08:44:07.671Z,93296.94
2022-12-14T08:47:15.960Z,93293.28
2022-12-14T08:50:24.314Z,93288.81
2022-12-14T08:53:33.607Z,93278.47
2022-12-14T08:56:42.210Z,93281.28
2022-12-14T09:00:01.267Z,93285.22
2022-12-14T09:03:11.801Z,93288.81
2022-12-14T09:06:24.397Z,93282.13
2022-12-14T09:09:33.070Z,93289.19
2022-12-14T09:12:41.573Z,93279.25
2022-12-14T09:16:00.135Z,93284.22
2022-12-14T09:19:08.604Z,93266.94
2022-12-14T09:22:17.034Z,93267.75
2022-12-14T09:25:25.601Z,93263.44
2022-12-14T09:28:37.766Z,93259.09
2022-12-14T09:31:47.741Z,93255.38
2022-12-14T09:34:56.812Z,93252.38
2022-12-14T09:38:05.215Z,93251.56
2022-12-14T09:41:32.206Z,93252.19
2022-12-14T09:44:58.819Z,93240.31
2022-12-14T09:48:19.412Z,93225.41
2022-12-14T09:51:37.007Z,93221.56
2022-12-14T09:54:50.057Z,93230.22
2022-12-14T09:58:06.769Z,93217.03
2022-12-14T10:06:01.177Z,93199.28
2022-12-14T10:09:22.040Z,93180.78
2022-12-14T10:12:49.341Z,93180.06
2022-12-14T10:16:11.705Z,93186.75
2022-12-14T10:19:37.466Z,93182.13
2022-12-14T10:22:52.744Z,93166.88
2022-12-14T10:26:07.658Z,93169.38
2022-12-14T10:29:23.505Z,93162.13
2022-12-14T10:32:37.235Z,93149.22
2022-12-14T10:35:53.112Z,93163.06
2022-12-14T10:39:08.755Z,93167.31
2022-12-14T10:42:27.565Z,93169.47
2022-12-14T10:45:49.387Z,93159.72
2022-12-14T10:49:10.335Z,93152.81
2022-12-14T10:52:24.217Z,93145.56
2022-12-14T10:55:41.121Z,93140.75
2022-12-14T10:59:27.514Z,93152.31
2022-12-14T11:02:41.927Z,93147.06
2022-12-14T11:06:03.329Z,93138.00
2022-12-14T11:09:22.623Z,93123.56
2022-12-14T11:12:32.566Z,93129.41
2022-12-14T11:15:43.805Z,93147.47
2022-12-14T11:19:00.153Z,93138.50
2022-12-14T11:22:22.288Z,93133.06
2022-12-14T11:25:36.762Z,93127.97
2022-12-14T11:28:51.610Z,93122.84
2022-12-14T11:32:01.371Z,93128.16
2022-12-14T11:35:18.876Z,93115.69
2022-12-14T11:38:31.242Z,93111.75
2022-12-14T11:41:45.048Z,93100.56
2022-12-14T11:44:55.300Z,93106.13
2022-12-14T11:48:22.139Z,93100.78
2022-12-14T11:51:30.436Z,93085.44
2022-12-14T11:54:41.128Z,93086.53
2022-12-14T11:57:54.693Z,93095.56
2022-12-14T12:01:12.377Z,93085.47
2022-12-14T12:04:21.033Z,93074.63
2022-12-14T12:07:35.015Z,93069.84
2022-12-14T12:10:50.142Z,93078.69
2022-12-14T12:14:02.624Z,93089.91
2022-12-14T12:17:20.748Z,93093.00
2022-12-14T12:20:36.770Z,93102.59
2022-12-14T12:23:52.920Z,93110.53
2022-12-14T12:27:11.328Z,93111.44
2022-12-14T12:30:29.211Z,93100.75
2022-12-14T12:33:48.793Z,93084.47
2022-12-14T12:40:35.472Z,93069.69
2022-12-14T12:43:53.610Z,93065.69
2022-12-14T12:47:25.579Z,93074.75
2022-12-14T12:50:49.605Z,93050.91
2022-12-14T12:54:03.640Z,93058.50
2022-12-14T12:57:15.540Z,93076.03
2022-12-14T13:00:26.938Z,93070.97
2022-12-14T13:03:40.960Z,93061.16
2022-12-14T13:06:57.853Z,93062.09
2022-12-14T13:10:18.178Z,93056.28
2022-12-14T13:13:31.911Z,93067.69
2022-12-14T13:16:42.125Z,93062.84
2022-12-14T13:19:55.697Z,93067.50
2022-12-14T13:23:44.400Z,93068.19
2022-12-14T13:27:13.665Z,93090.97
2022-12-14T13:30:58.458Z,93088.84
2022-12-14T13:34:31.177Z,93082.69
2022-12-14T13:38:20.148Z,93078.41
2022-12-14T13:41:37.368Z,93098.34
2022-12-14T13:44:57.923Z,93108.13
2022-12-14T13:48:10.254Z,93112.47
2022-12-14T13:51:29.417Z,93117.34
2022-12-14T13:54:41.071Z,93120.69
2022-12-14T13:57:49.561Z,93150.91
2022-12-14T14:01:07.271Z,93143.34
2022-12-14T14:04:26.245Z,93148.75
2022-12-14T14:07:51.600Z,93150.75
2022-12-14T14:11:46.222Z,93151.47
2022-12-14T14:15:03.416Z,93150.19
2022-12-14T14:18:24.436Z,93156.06
2022-12-14T14:22:06.035Z,93151.53
2022-12-14T14:25:39.393Z,93144.16
2022-12-14T14:29:06.020Z,93139.41
2022-12-14T14:32:35.701Z,93140.13
2022-12-14T14:35:44.100Z,93142.72
2022-12-14T14:39:02.051Z,93143.91
2022-12-14T14:42:23.081Z,93152.41
2022-12-14T14:45:51.289Z,93141.28
2022-12-14T14:48:59.675Z,93134.66
2022-12-14T14:52:47.871Z,93146.66
2022-12-14T14:56:35.704Z,93152.59
2022-12-14T14:59:51.186Z,93148.09
2022-12-14T15:03:01.577Z,93158.09
2022-12-14T15:06:16.809Z,93152.28
2022-12-14T15:09:33.270Z,93156.78
2022-12-14T15:12:50.344Z,93172.19
2022-12-14T15:15:58.822Z,93173.25
2022-12-14T15:19:30.305Z,93160.41
2022-12-14T15:22:45.171Z,93160.41
2022-12-14T15:26:01.714Z,93161.22
2022-12-14T15:29:31.522Z,93168.72
2022-12-14T15:32:55.025Z,93155.84
2022-12-14T15:36:18.482Z,93164.34
2022-12-14T15:39:40.312Z,93160.53
2022-12-14T15:42:54.997Z,93166.59
2022-12-14T15:46:04.101Z,93173.06
2022-12-14T15:49:24.961Z,93165.16
2022-12-14T15:52:41.541Z,93181.94
2022-12-14T15:56:01.190Z,93181.34
2022-12-14T15:59:20.489Z,93180.75
2022-12-14T16:02:46.928Z,93192.06
2022-12-14T16:05:57.825Z,93203.41
2022-12-14T16:09:16.907Z,93198.53
2022-12-14T16:12:41.029Z,93201.78
2022-12-14T16:16:09.063Z,93202.84
2022-12-14T16:19:28.197Z,93201.66
2022-12-14T16:22:42.090Z,93199.28
2022-12-14T16:26:10.187Z,93199.44
2022-12-14T16:29:42.338Z,93205.41
2022-12-14T16:33:18.144Z,93206.03
2022-12-14T16:36:29.006Z,93215.78
2022-12-14T16:39:52.662Z,93229.50
2022-12-14T16:43:28.630Z,93221.22
2022-12-14T16:46:41.358Z,93231.22
2022-12-14T16:50:05.383Z,93227.59
2022-12-14T16:53:26.554Z,93237.69
2022-12-14T16:56:56.715Z,93240.31
2022-12-14T17:00:09.135Z,93247.47
2022-12-14T17:03:26.306Z,93249.50
2022-12-14T17:06:52.434Z,93262.59
2022-12-14T17:10:01.535Z,93268.09
2022-12-14T17:13:12.613Z,93271.31
2022-12-14T17:16:23.004Z,93265.84
2022-12-14T17:19:38.383Z,93277.16
2022-12-14T17:22:49.343Z,93283.16
2022-12-14T17:25:59.446Z,93289.91
2022-12-14T17:29:25.446Z,93290.66
2022-12-14T17:32:36.662Z,93291.84
2022-12-14T17:35:53.452Z,93299.91
2022-12-14T17:39:48.299Z,93298.00
2022-12-14T17:42:59.456Z,93309.06
2022-12-14T17:46:18.132Z,93318.72
2022-12-14T17:49:37.223Z,93329.56
2022-12-14T17:52:47.236Z,93325.16
2022-12-14T17:56:04.023Z,93328.88
2022-12-14T17:59:20.460Z,93338.16
2022-12-14T18:03:23.685Z,93329.75
2022-12-14T18:06:38.113Z,93342.75
2022-12-14T18:10:00.249Z,93345.63
2022-12-14T18:13:09.136Z,93346.50
2022-12-14T18:16:22.129Z,93356.75
2022-12-14T18:19:30.931Z,93351.25
2022-12-14T18:22:40.824Z,93354.47
2022-12-14T18:25:52.253Z,93347.69
2022-12-14T18:29:00.894Z,93352.75
2022-12-14T18:32:14.451Z,93359.50
2022-12-14T18:35:26.503Z,93361.66
2022-12-14T18:38:36.689Z,93358.91
2022-12-14T18:41:45.677Z,93364.78
2022-12-14T18:44:54.225Z,93375.88
2022-12-14T18:48:03.771Z,93379.16
2022-12-14T18:51:15.395Z,93382.94
2022-12-14T18:54:25.092Z,93381.53
2022-12-14T18:57:33.492Z,93388.94
2022-12-14T19:00:42.037Z,93393.13
2022-12-14T19:03:51.213Z,93394.47
2022-12-14T19:06:59.632Z,93401.13
2022-12-14T19:10:15.765Z,93406.53
2022-12-14T19:13:25.982Z,93399.22
2022-12-14T19:16:35.235Z,93411.63
2022-12-14T19:19:44.740Z,93415.78
2022-12-14T19:22:53.611Z,93416.81
2022-12-14T19:26:03.798Z,93425.03
2022-12-14T19:29:12.365Z,93418.78
2022-12-14T19:32:20.814Z,93427.00
2022-12-14T19:35:29.518Z,93428.38
2022-12-14T19:38:39.039Z,93427.47
2022-12-14T19:41:49.719Z,93428.19
2022-12-14T19:44:58.530Z,93436.78
2022-12-14T19:48:12.888Z,93439.75
2022-12-14T19:51:21.891Z,93429.47
2022-12-14T19:54:33.765Z,93437.75
2022-12-14T19:57:43.483Z,93432.44
2022-12-14T20:00:52.946Z,93432.81
2022-12-14T20:04:02.347Z,93432.81
2022-12-14T20:07:21.810Z,93443.91
2022-12-14T20:10:32.922Z,93450.59
2022-12-14T20:13:45.763Z,93455.28
2022-12-14T20:16:55.472Z,93467.78
2022-12-14T20:20:04.948Z,93474.47
2022-12-14T20:23:14.694Z,93473.47
2022-12-14T20:26:24.292Z,93472.31
2022-12-14T20:29:34.473Z,93481.97
2022-12-14T20:32:49.412Z,93478.63
2022-12-14T20:35:58.101Z,93477.00
2022-12-14T20:39:07.509Z,93477.97
2022-12-14T20:42:16.002Z,93478.88
2022-12-14T20:45:26.033Z,93484.13
2022-12-14T20:48:34.732Z,93480.81
2022-12-14T20:51:45.305Z,93486.13
2022-12-14T20:54:53.659Z,93482.69
2022-12-14T20:58:10.003Z,93478.88
2022-12-14T21:01:23.340Z,93491.47
2022-12-14T21:04:34.969Z,93496.88
2022-12-14T21:07:45.988Z,93503.28
2022-12-14T21:11:23.046Z,93489.19
2022-12-14T21:14:34.918Z,93499.84
2022-12-14T21:17:44.829Z,93504.09
2022-12-14T21:20:53.395Z,93509.50
2022-12-14T21:24:02.019Z,93517.53
2022-12-14T21:27:15.260Z,93517.91
2022-12-14T21:30:23.543Z,93519.34
2022-12-14T21:33:35.680Z,93515.91
2022-12-14T21:36:44.239Z,93516.53
2022-12-14T21:39:55.173Z,93522.78
2022-12-14T21:43:04.005Z,93525.47
2022-12-14T21:46:12.827Z,93521.41
2022-12-14T21:49:23.225Z,93524.19
2022-12-14T21:52:31.881Z,93523.81
2022-12-14T21:55:49.973Z,93523.56
2022-12-14T21:58:57.266Z,93533.03
2022-12-14T22:02:09.911Z,93533.28
2022-12-14T22:05:19.822Z,93530.88
2022-12-14T22:08:31.009Z,93537.28
2022-12-14T22:11:39.641Z,93548.97
2022-12-14T22:14:49.636Z,93560.75
2022-12-14T22:17:57.825Z,93571.72
2022-12-14T22:21:08.037Z,93571.56
2022-12-14T22:24:16.858Z,93581.69
2022-12-14T22:27:25.096Z,93567.97
2022-12-14T22:30:33.808Z,93571.28
2022-12-14T22:33:42.189Z,93549.69
2022-12-14T22:36:53.330Z,93558.91
2022-12-14T22:40:01.817Z,93554.22
2022-12-14T22:43:10.139Z,93569.94
2022-12-14T22:46:20.452Z,93565.59
2022-12-14T22:49:28.699Z,93571.66
2022-12-14T22:52:38.462Z,93565.59
2022-12-14T22:55:49.973Z,93566.44
2022-12-14T22:59:06.163Z,93568.88
2022-12-14T23:02:14.743Z,93570.41
2022-12-14T23:05:23.101Z,93565.41
2022-12-14T23:08:32.929Z,93559.25
2022-12-14T23:11:58.797Z,93554.34
2022-12-14T23:15:26.447Z,93548.19
2022-12-14T23:18:52.633Z,93548.72
2022-12-14T23:22:18.509Z,93561.59
2022-12-14T23:25:45.487Z,93566.38
2022-12-14T23:29:12.373Z,93572.44
2022-12-14T23:32:38.517Z,93564.81
2022-12-14T23:36:04.376Z,93567.53
2022-12-14T23:39:31.479Z,93564.59
2022-12-14T23:42:58.764Z,93560.75
2022-12-14T23:46:25.110Z,93568.59
2022-12-14T23:49:51.319Z,93570.47
2022-12-14T23:53:22.895Z,93581.72
2022-12-14T23:56:48.890Z,93580.44
